Time;durP1;ratioP1;P1;durP2;ratioP2;P2;SDS_P1;SDS_P2;PMS_P1;PMS_P2;Temp;Humidity;BMP_temperature;BMP_pressure;BME280_temperature;BME280_humidity;BME280_pressure;Samples;Min_cycle;Max_cycle;Signal;HPM_P1;HPM_P2
2021/01/06 00:00:19;;;;;;;5.80;2.78;;;;;;;3.32;80.69;101812.66;10112463;28;20487;-67
2021/01/06 00:05:19;;;;;;;5.05;2.30;;;;;;;3.31;83.72;101811.81;10107218;28;20054;-65
2021/01/06 00:10:21;;;;;;;6.30;2.83;;;;;;;3.08;80.44;101807.31;10104337;28;20150;-68
2021/01/06 00:15:21;;;;;;;5.72;2.25;;;;;;;2.91;78.79;101809.16;10110877;28;20051;-65
2021/01/06 00:20:21;;;;;;;4.60;1.98;;;;;;;2.90;79.62;101804.81;10105496;28;20510;-68
2021/01/06 00:25:22;;;;;;;7.00;2.63;;;;;;;2.94;80.11;101803.28;10108756;28;20050;-67
2021/01/06 00:30:34;;;;;;;6.90;2.97;;;;;;;2.88;80.32;101788.84;10111911;28;20086;-68
2021/01/06 00:35:30;;;;;;;5.68;2.15;;;;;;;2.91;79.64;101788.38;10109984;28;20047;-68
2021/01/06 00:40:29;;;;;;;6.65;2.72;;;;;;;2.92;81.45;101792.72;10120034;28;20581;-65
2021/01/06 00:45:25;;;;;;;5.63;2.63;;;;;;;2.90;78.39;101788.59;10118979;28;20152;-68
2021/01/06 00:50:24;;;;;;;5.07;2.35;;;;;;;2.69;79.00;101782.81;10115302;28;20446;-68
2021/01/06 00:55:20;;;;;;;6.20;2.50;;;;;;;2.73;79.84;101772.34;10116072;28;20127;-69
2021/01/06 01:00:19;;;;;;;6.30;2.90;;;;;;;2.84;79.81;101773.38;10112906;28;20128;-66
2021/01/06 01:05:15;;;;;;;6.63;2.55;;;;;;;2.74;79.76;101774.81;10111334;28;20053;-66
2021/01/06 01:10:29;;;;;;;6.55;2.90;;;;;;;2.86;78.47;101779.34;10115671;28;20090;-66
2021/01/06 01:15:27;;;;;;;;;;;;;;;2.72;78.24;101776.91;10111831;28;20141;-65
2021/01/06 01:20:23;;;;;;;4.28;2.20;;;;;;;2.48;78.65;101773.47;10119080;28;19969;-65
2021/01/06 01:25:24;;;;;;;8.75;3.22;;;;;;;2.41;78.77;101763.84;10115849;28;20078;-65
2021/01/06 01:30:26;;;;;;;6.55;2.53;;;;;;;2.47;78.58;101754.78;10104871;28;20058;-65
2021/01/06 01:35:26;;;;;;;5.85;2.85;;;;;;;2.68;78.79;101754.16;10116984;28;20136;-65
2021/01/06 01:40:33;;;;;;;5.03;2.60;;;;;;;2.76;81.51;101749.44;10125132;28;20042;-68
2021/01/06 01:45:58;;;;;;;5.15;2.40;;;;;;;2.77;79.36;101751.91;10115755;28;20503;-66
2021/01/06 01:50:59;;;;;;;4.63;2.22;;;;;;;2.72;80.21;101749.91;10104642;28;20102;-68
2021/01/06 01:55:56;;;;;;;5.75;2.40;;;;;;;2.72;80.06;101736.41;10116288;28;20074;-66
2021/01/06 02:00:55;;;;;;;5.20;2.20;;;;;;;2.74;78.59;101728.91;10118854;28;20047;-70
2021/01/06 02:06:00;;;;;;;4.20;2.03;;;;;;;2.83;81.10;101723.09;10112548;28;20082;-65
2021/01/06 02:11:02;;;;;;;7.05;2.13;;;;;;;2.69;81.18;101723.41;10097856;28;20521;-65
2021/01/06 02:16:18;;;;;;;6.50;2.45;;;;;;;2.76;80.62;101727.81;10101634;28;20134;-69
2021/01/06 02:21:18;;;;;;;6.70;2.28;;;;;;;2.44;79.46;101715.59;10110584;28;20057;-64
2021/01/06 02:26:14;;;;;;;6.20;2.88;;;;;;;2.68;80.67;101716.34;10104563;28;20102;-66
2021/01/06 02:31:10;;;;;;;4.85;2.30;;;;;;;2.63;80.64;101704.63;10112762;28;20101;-69
2021/01/06 02:36:07;;;;;;;6.07;2.42;;;;;;;2.56;81.63;101693.97;10113425;28;20078;-68
2021/01/06 02:41:04;;;;;;;6.07;2.80;;;;;;;2.59;81.47;101698.88;10104080;28;20055;-67
2021/01/06 02:46:00;;;;;;;8.07;2.60;;;;;;;2.52;79.06;101698.19;10120381;28;20124;-63
2021/01/06 02:51:01;;;;;;;7.55;3.13;;;;;;;2.65;81.80;101699.81;10106358;28;20070;-67
2021/01/06 02:55:58;;;;;;;9.40;3.53;;;;;;;2.72;80.59;101685.09;10107987;28;20513;-68
2021/01/06 03:00:54;;;;;;;5.68;2.70;;;;;;;2.62;78.08;101684.06;10083693;28;20097;-65
2021/01/06 03:06:18;;;;;;;7.63;3.25;;;;;;;2.70;78.58;101681.81;10100470;28;20430;-67
2021/01/06 03:11:14;;;;;;;6.55;3.05;;;;;;;2.59;78.47;101679.97;10105836;28;20075;-67
2021/01/06 03:16:10;;;;;;;7.53;3.63;;;;;;;2.55;77.77;101668.00;10108582;28;20131;-65
2021/01/06 03:21:09;;;;;;;5.88;2.78;;;;;;;2.40;78.48;101659.63;10114872;28;20125;-67
2021/01/06 03:26:09;;;;;;;8.52;3.40;;;;;;;2.38;77.65;101656.34;10114039;28;20502;-67
2021/01/06 03:31:12;;;;;;;6.68;3.15;;;;;;;2.23;77.92;101659.59;10111848;28;20046;-67
2021/01/06 03:36:19;;;;;;;;;;;;;;;2.37;77.48;101650.16;10119425;28;20142;-69
2021/01/06 03:41:17;;;;;;;8.90;3.70;;;;;;;2.16;78.48;101653.47;10116949;28;19922;-67
2021/01/06 03:46:35;;;;;;;7.60;3.40;;;;;;;2.11;78.04;101638.00;10108360;28;20055;-68
2021/01/06 03:51:40;;;;;;;12.48;3.78;;;;;;;2.27;78.17;101628.34;10107368;28;20153;-69
2021/01/06 03:56:39;;;;;;;8.38;3.75;;;;;;;2.27;78.23;101634.53;10112037;28;20106;-69
2021/01/06 04:02:03;;;;;;;11.23;4.40;;;;;;;2.24;77.80;101629.63;10119429;28;20129;-66
2021/01/06 04:07:00;;;;;;;9.25;3.30;;;;;;;2.34;77.59;101622.81;10118980;28;20050;-68
2021/01/06 04:12:06;;;;;;;10.73;4.07;;;;;;;2.41;79.78;101612.69;10107996;28;20047;-69
2021/01/06 04:17:15;;;;;;;8.38;3.50;;;;;;;2.40;77.55;101605.66;10120928;28;20055;-65
2021/01/06 04:22:11;;;;;;;10.85;4.18;;;;;;;2.40;77.88;101614.56;10111337;28;20434;-69
2021/01/06 04:27:14;;;;;;;9.70;4.03;;;;;;;2.26;79.08;101605.94;10110068;28;20078;-67
2021/01/06 04:32:10;;;;;;;8.82;3.60;;;;;;;2.11;78.56;101597.53;10112543;28;20178;-67
2021/01/06 04:37:06;;;;;;;7.90;3.88;;;;;;;2.20;77.93;101585.28;10107887;28;20085;-68
2021/01/06 04:42:06;;;;;;;8.68;4.20;;;;;;;2.28;78.97;101590.31;10101379;28;20058;-65
2021/01/06 04:47:21;;;;;;;8.75;4.15;;;;;;;2.28;79.04;101584.94;10100799;28;20063;-69
2021/01/06 04:52:36;;;;;;;7.05;3.60;;;;;;;2.15;78.74;101577.13;10118787;28;20069;-68
2021/01/06 04:57:37;;;;;;;7.85;3.92;;;;;;;2.22;78.33;101580.47;10106833;28;20054;-67
2021/01/06 05:02:56;;;;;;;5.88;3.72;;;;;;;2.44;80.41;101566.31;10106823;28;20466;-67
2021/01/06 05:08:19;;;;;;;7.75;2.80;;;;;;;2.28;76.90;101570.63;10105203;28;20054;-68
2021/01/06 05:13:35;;;;;;;8.20;3.60;;;;;;;2.08;77.73;101561.06;10105420;28;20051;-68
2021/01/06 05:18:31;;;;;;;8.45;4.00;;;;;;;2.23;78.14;101557.03;10092785;28;20056;-68
2021/01/06 05:23:29;;;;;;;7.22;3.58;;;;;;;2.33;77.99;101556.41;10098303;28;20081;-67
2021/01/06 05:28:25;;;;;;;7.85;4.80;;;;;;;2.31;78.64;101553.94;10102694;28;20062;-66
2021/01/06 05:33:35;;;;;;;9.88;4.15;;;;;;;2.30;77.38;101547.72;10108756;28;20061;-66
2021/01/06 05:38:32;;;;;;;6.97;3.88;;;;;;;2.21;77.91;101537.56;10096301;28;20089;-63
2021/01/06 05:43:28;;;;;;;7.85;3.60;;;;;;;2.25;77.72;101544.09;10111111;28;20098;-66
2021/01/06 05:48:29;;;;;;;10.20;3.60;;;;;;;2.49;78.99;101534.03;10110368;28;20058;-67
2021/01/06 05:53:27;;;;;;;8.52;3.42;;;;;;;2.49;78.18;101540.22;10103533;28;20074;-65
2021/01/06 05:58:49;;;;;;;9.35;4.32;;;;;;;2.36;77.97;101534.31;10117632;28;20046;-64
2021/01/06 06:04:11;;;;;;;8.05;4.25;;;;;;;2.41;77.05;101531.72;10102164;28;20093;-64
2021/01/06 06:09:26;;;;;;;8.15;4.22;;;;;;;2.23;76.98;101530.88;10119053;28;20129;-65
2021/01/06 06:14:50;;;;;;;6.97;4.07;;;;;;;2.26;78.24;101524.97;10120406;28;20078;-65
2021/01/06 06:20:20;;;;;;;10.43;3.97;;;;;;;2.07;79.02;101516.28;10114900;28;20050;-65
2021/01/06 06:25:30;;;;;;;8.60;4.47;;;;;;;2.34;79.12;101514.84;10049690;28;20073;-65
2021/01/06 06:30:35;;;;;;;7.05;4.28;;;;;;;2.37;80.27;101519.75;10103390;28;20062;-66
2021/01/06 06:35:38;;;;;;;15.73;4.57;;;;;;;2.31;79.74;101516.16;10105632;28;20054;-65
2021/01/06 06:41:06;;;;;;;8.90;4.85;;;;;;;1.99;80.71;101513.13;10122043;28;20053;-65
2021/01/06 06:46:15;;;;;;;8.60;5.20;;;;;;;2.12;80.47;101501.25;10101746;28;20091;-66
2021/01/06 06:51:36;;;;;;;8.68;4.53;;;;;;;2.16;80.33;101503.22;10116805;28;20046;-65
2021/01/06 06:56:47;;;;;;;11.52;5.18;;;;;;;2.19;80.84;101502.72;10080668;28;20043;-64
2021/01/06 07:01:46;;;;;;;13.60;5.60;;;;;;;2.08;80.97;101509.00;10118907;28;20050;-67
2021/01/06 07:06:56;;;;;;;11.15;5.22;;;;;;;2.01;81.26;101502.94;10110757;28;20042;-65
2021/01/06 07:12:05;;;;;;;12.50;6.55;;;;;;;2.03;81.09;101508.91;10130278;28;20062;-67
2021/01/06 07:17:50;;;;;;;10.75;6.15;;;;;;;1.81;82.11;101504.19;10104555;28;20557;-65
2021/01/06 07:22:58;;;;;;;11.57;5.93;;;;;;;2.03;81.58;101506.22;10126108;28;20042;-66
2021/01/06 07:27:58;;;;;;;13.25;5.80;;;;;;;1.94;81.79;101497.69;10111567;28;20808;-63
2021/01/06 07:32:56;;;;;;;11.80;6.88;;;;;;;1.73;82.06;101499.16;10111741;28;20078;-65
2021/01/06 07:37:59;;;;;;;12.45;6.03;;;;;;;1.95;82.40;101498.50;10104030;28;20525;-65
2021/01/06 07:43:08;;;;;;;10.32;5.45;;;;;;;1.75;81.96;101502.44;10118038;28;20055;-64
2021/01/06 07:48:30;;;;;;;12.45;6.00;;;;;;;1.79;82.96;101503.59;10102838;28;20050;-65
2021/01/06 07:54:00;;;;;;;14.27;5.97;;;;;;;1.72;82.80;101497.53;10167245;23;20057;-66
2021/01/06 07:58:59;;;;;;;10.52;5.80;;;;;;;1.79;82.68;101500.91;10123061;28;20054;-65
2021/01/06 08:03:59;;;;;;;13.45;6.30;;;;;;;1.85;82.85;101497.22;10125560;28;21298;-66
2021/01/06 08:08:57;;;;;;;13.40;6.50;;;;;;;1.63;83.72;101496.28;10138092;28;20529;-66
2021/01/06 08:13:53;;;;;;;10.48;5.97;;;;;;;1.75;83.29;101486.25;10140753;28;20042;-66
2021/01/06 08:18:54;;;;;;;14.35;6.38;;;;;;;1.71;83.40;101490.50;10133979;28;20053;-66
2021/01/06 08:23:53;;;;;;;13.02;6.25;;;;;;;1.64;83.27;101490.63;10141925;28;20057;-66
2021/01/06 08:28:50;;;;;;;14.48;7.10;;;;;;;1.76;83.28;101482.50;10141828;28;20683;-65
2021/01/06 08:33:53;;;;;;;13.60;5.47;;;;;;;1.75;83.31;101470.09;10144007;28;20053;-66
2021/01/06 08:39:18;;;;;;;11.63;5.65;;;;;;;1.73;83.21;101472.19;10145056;28;20042;-67
2021/01/06 08:44:32;;;;;;;11.02;5.40;;;;;;;1.65;83.30;101467.19;10139228;28;20060;-65
2021/01/06 08:49:38;;;;;;;9.15;5.70;;;;;;;1.79;83.03;101467.75;10124733;28;20514;-64
2021/01/06 08:54:34;;;;;;;11.65;5.45;;;;;;;1.78;83.12;101468.78;10142113;28;20050;-65
2021/01/06 08:59:36;;;;;;;10.00;6.38;;;;;;;1.62;83.25;101459.56;10153529;28;20058;-67
2021/01/06 09:04:38;;;;;;;12.57;6.40;;;;;;;1.58;84.09;101463.81;10154472;28;20069;-65
2021/01/06 09:09:59;;;;;;;10.43;6.15;;;;;;;1.72;83.81;101457.09;10147597;28;20057;-66
2021/01/06 09:14:59;;;;;;;10.20;6.35;;;;;;;1.72;83.66;101453.56;10130343;28;20640;-66
2021/01/06 09:20:05;;;;;;;10.15;5.50;;;;;;;1.77;83.58;101446.41;10129833;28;20450;-65
2021/01/06 09:25:02;;;;;;;10.02;5.90;;;;;;;1.81;83.88;101442.16;10147165;28;20136;-64
2021/01/06 09:30:03;;;;;;;10.32;5.75;;;;;;;1.56;84.04;101445.19;10127189;28;20053;-65
2021/01/06 09:35:13;;;;;;;9.75;5.47;;;;;;;1.62;83.95;101428.03;10129577;28;20050;-63
2021/01/06 09:40:16;;;;;;;9.65;6.07;;;;;;;1.71;83.54;101425.78;10144274;28;20050;-65
2021/01/06 09:45:25;;;;;;;10.90;6.30;;;;;;;1.69;83.23;101422.50;10129180;28;20112;-66
2021/01/06 09:50:27;;;;;;;9.95;5.53;;;;;;;1.73;83.58;101423.66;10110074;28;25252;-64
2021/01/06 09:55:26;;;;;;;8.32;4.38;;;;;;;1.51;83.94;101423.53;10127169;28;20818;-65
2021/01/06 10:00:35;;;;;;;8.05;5.25;;;;;;;1.75;83.97;101426.13;10146343;28;20054;-65
2021/01/06 10:05:59;;;;;;;10.63;6.30;;;;;;;1.70;84.29;101418.78;10143163;28;20514;-65
2021/01/06 10:11:03;;;;;;;9.25;5.07;;;;;;;1.81;83.82;101409.81;10130145;28;20049;-64
2021/01/06 10:16:17;;;;;;;10.68;5.57;;;;;;;1.64;84.05;101408.94;10145592;28;20042;-63
2021/01/06 10:21:42;;;;;;;9.50;5.28;;;;;;;1.67;83.97;101397.66;10132622;28;20048;-62
2021/01/06 10:27:11;;;;;;;10.20;5.80;;;;;;;1.61;84.84;101387.88;10136243;28;20482;-65
2021/01/06 10:32:11;;;;;;;10.13;5.57;;;;;;;1.58;84.67;101374.84;10160431;28;20042;-65
2021/01/06 10:37:29;;;;;;;11.15;5.45;;;;;;;1.52;85.07;101378.53;10153268;28;20050;-66
2021/01/06 10:42:32;;;;;;;10.93;4.93;;;;;;;1.53;84.71;101377.47;10159086;28;20054;-67
2021/01/06 10:47:32;;;;;;;9.88;5.40;;;;;;;1.76;84.61;101369.25;10120208;28;20409;-67
2021/01/06 10:52:49;;;;;;;10.68;4.70;;;;;;;1.74;84.36;101354.38;10100845;28;20078;-64
2021/01/06 10:58:16;;;;;;;9.88;5.75;;;;;;;1.75;84.24;101350.63;10090422;28;20069;-65
2021/01/06 11:03:53;;;;;;;8.25;4.68;;;;;;;1.76;83.71;101342.28;10108933;28;20054;-66
2021/01/06 11:09:09;;;;;;;11.48;4.50;;;;;;;1.70;83.66;101332.50;10085085;28;20475;-63
2021/01/06 11:14:38;;;;;;;10.60;4.85;;;;;;;1.73;84.15;101329.31;10076266;28;20043;-62
2021/01/06 11:19:44;;;;;;;8.02;3.67;;;;;;;1.70;83.91;101323.59;10108195;28;20400;-64
2021/01/06 11:24:55;;;;;;;7.60;4.07;;;;;;;1.74;83.82;101317.47;10105276;28;20506;-64
2021/01/06 11:30:00;;;;;;;5.90;3.58;;;;;;;1.73;83.95;101304.22;10102448;28;20065;-62
2021/01/06 11:35:23;;;;;;;6.25;3.33;;;;;;;1.64;83.85;101301.91;10106320;28;20357;-64
2021/01/06 11:40:22;;;;;;;8.38;3.55;;;;;;;1.72;84.16;101287.25;10099629;28;20050;-65
2021/01/06 11:45:23;;;;;;;7.05;3.78;;;;;;;1.79;83.83;101287.09;10087637;28;20634;-63
2021/01/06 11:50:20;;;;;;;6.38;3.40;;;;;;;1.69;83.68;101271.53;10105143;28;20084;-66
2021/01/06 11:55:19;;;;;;;6.88;3.53;;;;;;;1.85;83.88;101270.72;10091397;28;20135;-65
2021/01/06 12:00:28;;;;;;;7.28;3.50;;;;;;;1.71;83.41;101264.03;10091946;28;20466;-64
2021/01/06 12:05:31;;;;;;;7.70;3.00;;;;;;;1.59;83.79;101252.50;10083229;28;20190;-63
2021/01/06 12:10:44;;;;;;;6.45;2.90;;;;;;;1.62;84.08;101238.53;10097002;28;20058;-64
2021/01/06 12:16:02;;;;;;;6.35;3.15;;;;;;;1.73;83.90;101234.94;10098139;28;20059;-64
2021/01/06 12:21:01;;;;;;;6.50;3.47;;;;;;;1.57;83.77;101230.38;10079475;28;20038;-64
2021/01/06 12:25:58;;;;;;;7.63;3.22;;;;;;;1.45;84.16;101228.56;10088395;28;21811;-68
2021/01/06 12:31:08;;;;;;;5.95;3.38;;;;;;;1.55;84.32;101217.13;10116969;28;20146;-65
2021/01/06 12:36:25;;;;;;;5.88;3.33;;;;;;;1.55;83.87;101205.53;10083549;28;20054;-65
2021/01/06 12:41:24;;;;;;;6.22;3.42;;;;;;;1.43;84.46;101198.34;10082231;28;20514;-64
2021/01/06 12:46:49;;;;;;;8.10;4.00;;;;;;;1.54;84.24;101198.53;10112181;28;20051;-65
2021/01/06 12:52:21;;;;;;;6.60;3.30;;;;;;;1.62;84.50;101195.41;10095042;28;20085;-66
2021/01/06 12:57:43;;;;;;;5.55;3.15;;;;;;;1.47;84.38;101196.81;10091630;28;20250;-66
2021/01/06 13:02:42;;;;;;;6.25;3.30;;;;;;;1.63;83.74;101197.06;10115235;28;20046;-64
2021/01/06 13:07:50;;;;;;;5.13;2.60;;;;;;;1.75;83.92;101181.59;10115663;28;20059;-65
2021/01/06 13:13:40;;;;;;;6.00;3.00;;;;;;;1.70;84.14;101178.84;10111286;28;20125;-65
2021/01/06 13:18:45;;;;;;;4.95;2.75;;;;;;;1.77;83.27;101171.38;10045057;28;20569;-65
2021/01/06 13:23:54;;;;;;;7.20;3.00;;;;;;;1.76;83.64;101167.03;10088535;28;20057;-63
2021/01/06 13:28:58;;;;;;;5.93;3.28;;;;;;;1.69;83.32;101166.41;10080475;28;20085;-66
2021/01/06 13:34:36;;;;;;;5.47;3.00;;;;;;;1.62;83.78;101166.56;10102154;28;20054;-63
2021/01/06 13:40:10;;;;;;;5.30;3.00;;;;;;;1.69;83.28;101163.72;9931450;29;20537;-65
2021/01/06 13:45:24;;;;;;;6.07;3.40;;;;;;;1.39;84.06;101164.06;10078270;28;21219;-64
2021/01/06 13:50:59;;;;;;;7.90;2.78;;;;;;;1.33;84.91;101170.44;10097310;28;20054;-63
2021/01/06 13:56:00;;;;;;;6.43;3.15;;;;;;;1.28;84.91;101163.09;10090987;28;20055;-66
2021/01/06 14:01:38;;;;;;;7.20;3.03;;;;;;;1.42;84.94;101164.41;10107170;28;20042;-63
2021/01/06 14:06:56;;;;;;;5.60;2.70;;;;;;;1.34;84.71;101159.41;10086904;28;20485;-66
2021/01/06 14:11:52;;;;;;;5.60;3.03;;;;;;;1.44;84.44;101156.88;10108777;28;20130;-64
2021/01/06 14:17:25;;;;;;;5.10;2.80;;;;;;;1.26;84.74;101155.25;10111029;28;20089;-64
2021/01/06 14:22:42;;;;;;;4.88;2.47;;;;;;;1.42;84.57;101155.50;10107935;28;20043;-64
2021/01/06 14:27:45;;;;;;;6.05;2.80;;;;;;;1.42;84.14;101159.00;10104633;28;20101;-64
2021/01/06 14:33:05;;;;;;;4.83;2.47;;;;;;;1.32;84.50;101148.06;10102771;28;20046;-65
2021/01/06 14:38:04;;;;;;;5.78;2.40;;;;;;;1.41;84.41;101151.97;10061387;28;20722;-64
2021/01/06 14:43:35;;;;;;;7.97;4.15;;;;;;;1.14;85.13;101153.69;10113400;28;20144;-66
2021/01/06 14:48:49;;;;;;;7.20;3.83;;;;;;;1.31;84.92;101143.75;10086122;28;20055;-64
2021/01/06 14:54:04;;;;;;;5.00;2.47;;;;;;;1.34;84.75;101140.53;10097227;28;20438;-65
2021/01/06 14:59:05;;;;;;;4.68;2.60;;;;;;;1.20;84.73;101144.63;10110926;28;20105;-64
2021/01/06 15:04:21;;;;;;;4.95;2.40;;;;;;;1.33;84.66;101144.31;10105304;28;20053;-65
2021/01/06 15:09:53;;;;;;;8.30;4.22;;;;;;;1.32;84.67;101129.19;10112754;28;20418;-65
2021/01/06 15:15:04;;;;;;;9.15;4.60;;;;;;;1.23;84.52;101127.97;10044853;28;20054;-67
2021/01/06 15:20:38;;;;;;;5.05;2.85;;;;;;;1.24;84.68;101124.22;10120493;28;20050;-66
2021/01/06 15:25:38;;;;;;;4.03;2.20;;;;;;;1.22;84.79;101123.66;10098981;28;20534;-64
2021/01/06 15:30:38;;;;;;;4.07;2.45;;;;;;;1.07;84.77;101118.00;10110008;28;20075;-64
2021/01/06 15:35:41;;;;;;;4.80;2.50;;;;;;;1.03;84.83;101107.75;10108610;28;20069;-65
2021/01/06 15:40:40;;;;;;;6.63;4.18;;;;;;;1.17;84.78;101110.94;10085141;28;20485;-65
2021/01/06 15:45:37;;;;;;;8.15;4.10;;;;;;;1.21;84.88;101111.28;10087837;28;20066;-64
2021/01/06 15:50:34;;;;;;;6.00;3.10;;;;;;;1.31;84.53;101108.72;10115616;28;20057;-65
2021/01/06 15:55:30;;;;;;;4.30;2.50;;;;;;;1.23;84.57;101103.72;10100409;28;20629;-62
2021/01/06 16:00:28;;;;;;;5.07;2.35;;;;;;;1.24;84.67;101110.75;10115732;28;20046;-65
2021/01/06 16:05:38;;;;;;;4.78;2.60;;;;;;;1.12;84.70;101100.09;10113418;28;20051;-64
2021/01/06 16:10:37;;;;;;;4.50;2.75;;;;;;;1.13;84.79;101103.59;10109419;28;20110;-64
2021/01/06 16:15:40;;;;;;;4.72;2.63;;;;;;;1.17;84.78;101093.97;10123547;28;20050;-66
2021/01/06 16:20:39;;;;;;;4.10;2.67;;;;;;;1.18;85.04;101093.69;10086698;28;20069;-64
2021/01/06 16:25:46;;;;;;;6.22;3.42;;;;;;;1.34;84.25;101092.06;10109668;28;20453;-63
2021/01/06 16:30:51;;;;;;;6.90;3.83;;;;;;;1.10;84.43;101085.22;10112605;28;20109;-65
2021/01/06 16:36:03;;;;;;;4.72;2.83;;;;;;;1.17;84.59;101085.88;10101709;28;20523;-64
2021/01/06 16:41:03;;;;;;;4.70;2.85;;;;;;;1.04;84.87;101093.22;10112977;28;20120;-65
2021/01/06 16:46:23;;;;;;;5.13;2.80;;;;;;;0.84;85.32;101080.25;10093736;28;20056;-64
2021/01/06 16:51:20;;;;;;;7.40;4.50;;;;;;;1.01;85.80;101076.75;10105528;28;20042;-64
2021/01/06 16:56:40;;;;;;;5.20;3.50;;;;;;;1.00;85.80;101078.63;10113198;28;20504;-64
2021/01/06 17:01:40;;;;;;;5.85;3.65;;;;;;;1.01;85.30;101066.78;10105683;28;20090;-64
2021/01/06 17:06:41;;;;;;;6.88;4.13;;;;;;;1.18;84.86;101071.34;10110317;28;20058;-64
2021/01/06 17:11:59;;;;;;;6.28;4.05;;;;;;;1.20;84.80;101064.63;10115414;28;20055;-64
2021/01/06 17:17:03;;;;;;;5.75;3.30;;;;;;;1.15;84.58;101055.69;10086461;28;20054;-64
2021/01/06 17:21:59;;;;;;;;;;;;;;;1.16;84.74;101062.69;10095330;28;20097;-63
2021/01/06 17:27:06;;;;;;;8.13;4.78;;;;;;;1.05;85.16;101067.94;10094003;23;20492;-65
2021/01/06 17:32:11;;;;;;;7.65;3.20;;;;;;;1.04;85.05;101055.53;10136189;28;20053;-65
2021/01/06 17:37:07;;;;;;;5.72;3.90;;;;;;;1.19;84.89;101056.81;10112373;28;20509;-64
2021/01/06 17:42:05;;;;;;;7.38;4.97;;;;;;;1.14;85.03;101054.88;10121803;28;20102;-65
2021/01/06 17:47:02;;;;;;;7.75;4.50;;;;;;;1.05;85.41;101046.38;10113071;28;20050;-66
2021/01/06 17:51:58;;;;;;;14.90;8.52;;;;;;;0.95;85.39;101048.94;10107194;28;20141;-64
2021/01/06 17:56:55;;;;;;;11.70;6.32;;;;;;;0.98;85.48;101045.72;10108786;28;20135;-63
2021/01/06 18:01:52;;;;;;;5.70;3.67;;;;;;;1.04;85.47;101039.38;10105204;28;20979;-66
2021/01/06 18:07:02;;;;;;;5.38;3.50;;;;;;;1.07;85.46;101045.31;10110441;28;20042;-65
2021/01/06 18:12:01;;;;;;;6.38;3.83;;;;;;;1.05;85.37;101041.00;10105570;28;20765;-64
2021/01/06 18:17:02;;;;;;;6.78;4.68;;;;;;;0.97;85.05;101040.59;10085730;28;20046;-64
2021/01/06 18:22:08;;;;;;;11.82;6.72;;;;;;;0.99;85.63;101041.97;10117427;28;20109;-64
2021/01/06 18:27:09;;;;;;;13.23;8.02;;;;;;;0.99;86.04;101041.97;10103761;28;20510;-65
2021/01/06 18:32:19;;;;;;;9.13;5.35;;;;;;;1.06;85.10;101047.19;10108942;28;20134;-64
2021/01/06 18:37:20;;;;;;;6.80;4.43;;;;;;;1.04;85.22;101044.75;10112896;28;20700;-64
2021/01/06 18:42:24;;;;;;;8.45;4.22;;;;;;;1.12;84.93;101034.63;10109126;28;20070;-65
2021/01/06 18:47:21;;;;;;;4.85;3.50;;;;;;;1.08;85.12;101034.28;10107595;28;20047;-65
2021/01/06 18:52:17;;;;;;;5.93;3.83;;;;;;;1.02;85.32;101038.81;10102113;28;20096;-65
2021/01/06 18:57:22;;;;;;;9.10;5.75;;;;;;;1.04;85.08;101038.53;10105873;28;20051;-65
2021/01/06 19:02:35;;;;;;;11.85;6.25;;;;;;;1.07;84.94;101032.69;10098046;28;20142;-64
2021/01/06 19:07:33;;;;;;;15.25;8.93;;;;;;;1.07;85.12;101029.16;10105447;28;20408;-65
2021/01/06 19:12:29;;;;;;;10.48;7.03;;;;;;;0.88;85.85;101040.16;10115869;28;20047;-67
2021/01/06 19:17:27;;;;;;;7.30;5.28;;;;;;;0.94;85.31;101039.19;10115342;28;20058;-65
2021/01/06 19:22:33;;;;;;;9.27;6.38;;;;;;;1.09;84.78;101035.09;10121515;28;20082;-65
2021/01/06 19:27:29;;;;;;;9.68;5.65;;;;;;;1.04;85.33;101033.16;10113852;28;20065;-65
2021/01/06 19:32:26;;;;;;;7.25;5.22;;;;;;;1.01;85.21;101034.47;10123677;28;20058;-64
2021/01/06 19:37:24;;;;;;;9.52;5.68;;;;;;;1.05;85.35;101029.41;10114947;28;20573;-65
2021/01/06 19:42:21;;;;;;;7.38;4.68;;;;;;;0.98;85.66;101029.59;10112523;28;20042;-65
2021/01/06 19:47:18;;;;;;;7.85;5.45;;;;;;;0.95;85.17;101024.69;10121054;28;20092;-68
2021/01/06 19:52:18;;;;;;;9.93;6.10;;;;;;;0.79;85.56;101026.31;10113910;28;20161;-65
2021/01/06 19:57:20;;;;;;;8.32;5.35;;;;;;;0.79;86.12;101028.19;10134087;28;20129;-64
2021/01/06 20:02:18;;;;;;;8.20;5.80;;;;;;;0.80;86.44;101027.13;10138967;28;20114;-64
2021/01/06 20:07:14;;;;;;;10.20;6.10;;;;;;;0.75;86.52;101040.53;10113799;28;20038;-65
2021/01/06 20:12:14;;;;;;;10.02;6.43;;;;;;;0.81;86.57;101023.38;10106910;28;20069;-64
2021/01/06 20:17:11;;;;;;;7.38;5.22;;;;;;;0.78;86.08;101029.25;10118250;28;20109;-64
2021/01/06 20:22:07;;;;;;;10.23;6.10;;;;;;;0.79;86.38;101017.41;10133228;28;20046;-65
2021/01/06 20:27:04;;;;;;;7.57;5.03;;;;;;;0.66;86.55;101015.06;10101058;28;20523;-65
2021/01/06 20:32:03;;;;;;;8.18;5.80;;;;;;;0.71;86.59;101018.66;10108365;28;20058;-64
2021/01/06 20:36:59;;;;;;;7.88;5.40;;;;;;;0.87;85.81;101011.63;10110005;28;20050;-66
2021/01/06 20:41:57;;;;;;;8.35;5.45;;;;;;;0.77;85.89;101011.50;10120394;28;21428;-64
2021/01/06 20:46:53;;;;;;;8.43;5.95;;;;;;;0.53;86.72;101006.25;10107402;28;20055;-64
2021/01/06 20:51:53;;;;;;;7.25;5.05;;;;;;;0.69;87.03;101003.81;10110816;28;20057;-65
2021/01/06 20:56:53;;;;;;;9.40;6.20;;;;;;;0.84;86.40;101001.38;10104147;28;20117;-64
2021/01/06 21:02:06;;;;;;;12.13;7.28;;;;;;;0.69;86.47;100993.84;10103960;28;20101;-66
2021/01/06 21:07:03;;;;;;;11.57;7.38;;;;;;;0.84;86.16;100985.22;10112446;28;20051;-67
2021/01/06 21:12:01;;;;;;;8.48;5.70;;;;;;;0.81;86.29;100974.91;10121931;28;20047;-65
2021/01/06 21:17:05;;;;;;;8.85;6.30;;;;;;;0.84;86.17;100977.94;10110807;28;20116;-66
2021/01/06 21:22:01;;;;;;;9.52;6.00;;;;;;;0.87;86.19;100979.31;10123887;28;20050;-65
2021/01/06 21:26:57;;;;;;;10.40;6.63;;;;;;;0.88;86.28;100983.63;10102363;28;20082;-63
2021/01/06 21:31:56;;;;;;;8.93;6.00;;;;;;;0.92;86.02;100973.19;10108978;28;20606;-64
2021/01/06 21:36:53;;;;;;;9.75;6.07;;;;;;;0.78;86.93;100970.03;10098774;28;20043;-64
2021/01/06 21:41:49;;;;;;;10.25;6.03;;;;;;;0.85;86.44;100970.69;10104819;28;20146;-66
2021/01/06 21:46:46;;;;;;;10.50;6.45;;;;;;;0.98;85.73;100970.34;10104361;28;20064;-65
2021/01/06 21:51:42;;;;;;;9.77;6.80;;;;;;;0.83;86.13;100979.00;10078131;28;20057;-66
2021/01/06 21:56:41;;;;;;;10.35;5.65;;;;;;;0.95;85.98;100976.22;10101157;28;20145;-66
2021/01/06 22:01:41;;;;;;;7.28;4.90;;;;;;;1.00;85.35;100979.00;10109640;28;20070;-67
2021/01/06 22:06:38;;;;;;;9.82;5.90;;;;;;;1.00;85.62;100978.19;10087414;28;20134;-65
2021/01/06 22:11:36;;;;;;;8.85;5.30;;;;;;;0.88;85.91;100975.56;10103290;28;20692;-66
2021/01/06 22:16:33;;;;;;;9.27;6.15;;;;;;;0.99;85.72;100971.97;10100548;28;20082;-67
2021/01/06 22:21:29;;;;;;;8.95;5.93;;;;;;;0.91;85.89;100975.09;10101469;28;20414;-66
2021/01/06 22:26:25;;;;;;;9.75;6.13;;;;;;;0.86;86.01;100966.94;10108542;28;20049;-68
2021/01/06 22:31:22;;;;;;;8.80;6.15;;;;;;;0.90;85.81;100968.06;10106861;28;20062;-66
2021/01/06 22:36:18;;;;;;;9.98;6.10;;;;;;;0.81;86.24;100958.78;10100735;28;20057;-67
2021/01/06 22:41:15;;;;;;;8.73;5.78;;;;;;;0.95;85.76;100965.47;10110914;28;20093;-67
2021/01/06 22:46:11;;;;;;;9.63;6.03;;;;;;;0.83;86.47;100952.06;10116276;28;20432;-68
2021/01/06 22:51:07;;;;;;;10.10;6.22;;;;;;;0.88;85.98;100951.34;10106191;28;20169;-66
2021/01/06 22:56:04;;;;;;;9.52;6.32;;;;;;;0.95;85.91;100954.69;10116151;28;20047;-64
2021/01/06 23:01:00;;;;;;;9.05;5.78;;;;;;;0.95;86.08;100943.91;10116549;28;20055;-66
2021/01/06 23:05:56;;;;;;;10.80;6.07;;;;;;;0.82;86.20;100944.25;10117635;28;20098;-66
2021/01/06 23:10:52;;;;;;;10.45;6.65;;;;;;;0.97;86.16;100947.16;10108242;28;20045;-65
2021/01/06 23:15:49;;;;;;;8.88;6.05;;;;;;;0.99;86.03;100945.03;10117322;28;20406;-65
2021/01/06 23:20:46;;;;;;;10.40;5.95;;;;;;;0.90;86.16;100941.13;10110612;28;20047;-66
2021/01/06 23:25:42;;;;;;;10.63;6.43;;;;;;;0.99;85.77;100945.03;10095360;28;20047;-66
2021/01/06 23:30:39;;;;;;;11.27;6.60;;;;;;;0.92;86.10;100941.72;10115519;28;20046;-66
2021/01/06 23:35:35;;;;;;;8.48;5.50;;;;;;;0.91;85.88;100940.09;10113061;28;20101;-67